KAIA

Alliance Municipal Airport

Alliance, Nebraska, USA
METAR KAIA 241053Z AUTO 33013KT 10SM OVC008 09/08 A2994 RMK AO2 CIG 007V011 SLP100 T00890083
Observed Flight Rules
Sep-24 @ 10:53 UTC (41 minutes ago) Instrument Flight Rules
Wind Visibility Clouds
330° at 13 knots 10 miles
  • Overcast at 800' AGL
Temperatures Readings
Current 9°C / 48°F
Dewpoint 8°C / 46°F
Humidity 94%
Altimeter 29.94" Hg
Pressure 1010 hPa
Elevation 1196
METAR KAIA 241053Z AUTO 33013KT 10SM OVC008 09/08 A2994 RMK AO2 CIG 007V011 SLP100 T00890083
Observed Flight Rules
Sep-24 @ 10:53 UTC
(41 minutes ago)
IFR
Wind Visibility
330° at 13 knots 10 miles
Clouds
  • Overcast at 800' AGL
Temperature Dewpoint
9°C / 48°F 8°C / 46°F
Humidity Altimeter Pressure
94% 29.94" Hg 1010 hPa